Time;durP1;ratioP1;P1;durP2;ratioP2;P2;SDS_P1;SDS_P2;PMS_P1;PMS_P2;Temp;Humidity;BMP_temperature;BMP_pressure;BME280_temperature;BME280_humidity;BME280_pressure;Samples;Min_cycle;Max_cycle;Signal;HPM_P1;HPM_P2
2022/09/16 00:01:19;;;;;;;;;;;11.30;99.90;;;;;;5021613;28;19999;-28
2022/09/16 00:03:45;;;;;;;;;;;11.30;99.90;;;;;;5010009;28;19921;-28
2022/09/16 00:06:18;;;;;;;;;;;11.30;99.90;;;;;;5006063;28;20382;-29
2022/09/16 00:08:46;;;;;;;;;;;11.30;99.90;;;;;;5004379;28;19921;-29
2022/09/16 00:11:11;;;;;;;;;;;11.30;99.90;;;;;;5011403;28;19952;-29
2022/09/16 00:13:37;;;;;;;;;;;11.40;99.90;;;;;;5017789;28;19921;-29
2022/09/16 00:16:06;;;;;;;;;;;11.40;99.90;;;;;;5016701;28;19967;-29
2022/09/16 00:18:32;;;;;;;;;;;11.40;99.90;;;;;;5016029;28;20007;-29
2022/09/16 00:20:57;;;;;;;;;;;11.40;99.90;;;;;;5024503;28;20003;-28
2022/09/16 00:23:23;;;;;;;;;;;11.40;99.90;;;;;;5027622;28;20293;-29
2022/09/16 00:25:52;;;;;;;;;;;11.50;99.90;;;;;;5033666;28;19968;-29
2022/09/16 00:28:20;;;;;;;;;;;11.50;99.90;;;;;;5024712;28;19971;-29
2022/09/16 00:30:46;;;;;;;;;;;11.50;99.90;;;;;;5020670;28;19917;-29
2022/09/16 00:33:12;;;;;;;;;;;11.40;99.90;;;;;;5013658;28;20303;-29
2022/09/16 00:35:38;;;;;;;;;;;11.50;99.90;;;;;;5017495;28;19917;-28
2022/09/16 00:38:03;;;;;;;;;;;11.50;99.90;;;;;;5008802;28;19917;-29
2022/09/16 00:40:29;;;;;;;;;;;11.50;99.90;;;;;;5013441;28;19921;-29
2022/09/16 00:42:54;;;;;;;;;;;11.50;99.90;;;;;;5023130;28;20378;-29
2022/09/16 00:45:21;;;;;;;;;;;11.50;99.90;;;;;;5024730;28;19917;-29
2022/09/16 00:47:49;;;;;;;;;;;11.50;99.90;;;;;;5013827;28;19917;-29
2022/09/16 00:50:17;;;;;;;;;;;11.50;99.90;;;;;;4994196;28;20392;-29
2022/09/16 00:52:42;;;;;;;;;;;11.50;99.90;;;;;;5028572;28;20370;-29
2022/09/16 00:55:10;;;;;;;;;;;11.50;99.90;;;;;;5014945;28;19920;-29
2022/09/16 00:57:36;;;;;;;;;;;11.50;99.90;;;;;;5010277;28;20031;-29
2022/09/16 01:00:03;;;;;;;;;;;11.60;99.90;;;;;;5027540;28;20290;-29
2022/09/16 01:02:29;;;;;;;;;;;11.60;99.90;;;;;;5012304;28;20363;-29
2022/09/16 01:04:56;;;;;;;;;;;11.60;99.90;;;;;;5020821;28;19925;-29
2022/09/16 01:07:25;;;;;;;;;;;11.60;99.90;;;;;;5016132;28;19924;-29
2022/09/16 01:09:51;;;;;;;;;;;11.60;99.90;;;;;;5013867;28;19917;-29
2022/09/16 01:12:17;;;;;;;;;;;11.60;99.90;;;;;;5004616;28;19924;-29
2022/09/16 01:14:51;;;;;;;;;;;11.70;99.90;;;;;;5013331;28;19929;-29
2022/09/16 01:17:23;;;;;;;;;;;11.70;99.90;;;;;;5015166;28;19917;-29
2022/09/16 01:19:52;;;;;;;;;;;11.70;99.90;;;;;;5034548;28;19925;-29
2022/09/16 01:22:24;;;;;;;;;;;11.70;99.90;;;;;;5008559;28;19924;-29
2022/09/16 01:25:05;;;;;;;;;;;11.80;99.90;;;;;;5013449;28;19929;-29
2022/09/16 01:27:34;;;;;;;;;;;11.80;99.90;;;;;;5020126;28;19921;-29
2022/09/16 01:30:18;;;;;;;;;;;11.80;99.90;;;;;;5025059;28;19968;-29
2022/09/16 01:32:47;;;;;;;;;;;11.80;99.90;;;;;;5024519;28;19971;-29
2022/09/16 01:35:12;;;;;;;;;;;11.80;99.90;;;;;;5034187;28;19948;-29
2022/09/16 01:37:38;;;;;;;;;;;11.80;99.90;;;;;;5014491;28;19979;-29
2022/09/16 01:40:10;;;;;;;;;;;11.70;99.90;;;;;;5025565;28;19921;-29
2022/09/16 01:42:46;;;;;;;;;;;11.70;99.90;;;;;;5019970;28;20364;-29
2022/09/16 01:45:21;;;;;;;;;;;11.70;99.90;;;;;;5034448;28;19964;-29
2022/09/16 01:47:47;;;;;;;;;;;11.60;99.90;;;;;;5011615;28;20008;-29
2022/09/16 01:50:18;;;;;;;;;;;11.60;99.90;;;;;;5006752;28;20009;-29
2022/09/16 01:53:03;;;;;;;;;;;11.60;99.90;;;;;;5007291;28;19924;-29
2022/09/16 01:55:32;;;;;;;;;;;11.60;99.90;;;;;;5024373;28;19917;-29
2022/09/16 01:57:58;;;;;;;;;;;11.60;99.90;;;;;;5005917;28;19917;-29
2022/09/16 02:00:24;;;;;;;;;;;11.60;99.90;;;;;;5009973;28;19921;-29
2022/09/16 02:02:49;;;;;;;;;;;11.60;99.90;;;;;;5008686;28;20008;-29
2022/09/16 02:05:18;;;;;;;;;;;11.60;99.90;;;;;;5027785;28;20352;-29
2022/09/16 02:07:46;;;;;;;;;;;11.60;99.90;;;;;;5044556;28;19917;-29
2022/09/16 02:10:41;;;;;;;;;;;11.60;99.90;;;;;;5014076;28;20344;-29
2022/09/16 02:13:10;;;;;;;;;;;11.70;99.90;;;;;;5002402;28;19952;-29
2022/09/16 02:15:37;;;;;;;;;;;11.70;99.90;;;;;;5021072;28;19917;-29
2022/09/16 02:18:05;;;;;;;;;;;11.70;99.90;;;;;;5014526;28;19917;-29
2022/09/16 02:20:31;;;;;;;;;;;11.70;99.90;;;;;;5000966;28;19921;-29
2022/09/16 02:23:20;;;;;;;;;;;11.70;99.90;;;;;;5014480;28;19917;-29
2022/09/16 02:25:47;;;;;;;;;;;11.70;99.90;;;;;;5002295;28;20043;-29
2022/09/16 02:28:15;;;;;;;;;;;11.60;99.90;;;;;;4998692;28;20379;-29
2022/09/16 02:30:43;;;;;;;;;;;11.60;99.90;;;;;;5004942;28;19976;-29
2022/09/16 02:33:10;;;;;;;;;;;11.60;99.90;;;;;;5019237;28;19976;-29
2022/09/16 02:35:37;;;;;;;;;;;11.60;99.90;;;;;;5011806;28;20355;-29
2022/09/16 02:38:08;;;;;;;;;;;11.60;99.90;;;;;;5011899;28;19917;-29
2022/09/16 02:40:36;;;;;;;;;;;11.60;99.90;;;;;;5012163;28;19963;-29
2022/09/16 02:43:01;;;;;;;;;;;11.60;99.90;;;;;;5006226;28;20309;-29
2022/09/16 02:45:37;;;;;;;;;;;11.60;99.90;;;;;;5012722;28;19917;-29
2022/09/16 02:48:32;;;;;;;;;;;11.60;99.90;;;;;;5014839;28;19917;-29
2022/09/16 02:51:14;;;;;;;;;;;11.60;99.90;;;;;;5011828;28;20429;-29
2022/09/16 02:53:39;;;;;;;;;;;11.50;99.90;;;;;;5024855;28;20643;-29
2022/09/16 02:56:09;;;;;;;;;;;11.50;99.90;;;;;;5023348;28;19918;-29
2022/09/16 02:58:35;;;;;;;;;;;11.40;99.90;;;;;;5021064;28;20302;-29
2022/09/16 03:01:01;;;;;;;;;;;11.30;99.90;;;;;;5009905;28;19921;-29
2022/09/16 03:03:26;;;;;;;;;;;11.20;99.90;;;;;;5006445;28;19924;-29
2022/09/16 03:06:04;;;;;;;;;;;11.20;99.90;;;;;;5024294;28;19921;-29
2022/09/16 03:08:30;;;;;;;;;;;11.10;99.90;;;;;;5033770;28;19932;-29
2022/09/16 03:10:57;;;;;;;;;;;11.10;99.90;;;;;;5010437;28;19940;-29
2022/09/16 03:13:29;;;;;;;;;;;11.10;99.90;;;;;;5016732;28;19963;-29
2022/09/16 03:15:55;;;;;;;;;;;11.10;99.90;;;;;;5002697;28;20010;-29
2022/09/16 03:18:26;;;;;;;;;;;11.00;99.90;;;;;;5016812;28;19972;-29
2022/09/16 03:20:52;;;;;;;;;;;11.10;99.90;;;;;;5025211;28;19921;-29
2022/09/16 03:23:29;;;;;;;;;;;11.10;99.90;;;;;;5017760;28;20289;-29
2022/09/16 03:26:07;;;;;;;;;;;11.10;99.90;;;;;;5020172;28;19920;-29
2022/09/16 03:28:39;;;;;;;;;;;11.10;99.90;;;;;;5021925;28;19917;-29
2022/09/16 03:31:09;;;;;;;;;;;11.20;99.90;;;;;;5023944;28;19968;-29
2022/09/16 03:33:37;;;;;;;;;;;11.20;99.90;;;;;;5002964;28;19928;-29
2022/09/16 03:36:04;;;;;;;;;;;11.20;99.90;;;;;;5037917;28;19917;-29
2022/09/16 03:38:32;;;;;;;;;;;11.30;99.90;;;;;;5021154;28;19975;-29
2022/09/16 03:40:58;;;;;;;;;;;11.30;99.90;;;;;;5016723;28;19956;-29
2022/09/16 03:43:24;;;;;;;;;;;11.30;99.90;;;;;;5006240;28;19921;-29
2022/09/16 03:45:50;;;;;;;;;;;11.30;99.90;;;;;;5020932;28;19927;-29
2022/09/16 03:48:15;;;;;;;;;;;11.30;99.90;;;;;;5015939;28;20463;-29
2022/09/16 03:50:41;;;;;;;;;;;11.40;99.90;;;;;;5006035;28;19967;-29
2022/09/16 03:53:07;;;;;;;;;;;11.40;99.90;;;;;;5018043;28;19921;-29
2022/09/16 03:55:33;;;;;;;;;;;11.40;99.90;;;;;;5015690;28;19917;-29
2022/09/16 03:57:58;;;;;;;;;;;11.40;99.90;;;;;;5016360;28;19972;-29
2022/09/16 04:00:24;;;;;;;;;;;11.30;99.90;;;;;;5008381;28;19933;-29
2022/09/16 04:02:49;;;;;;;;;;;11.30;99.90;;;;;;5018177;28;19925;-29
2022/09/16 04:05:15;;;;;;;;;;;11.30;99.90;;;;;;5026552;28;20298;-29
2022/09/16 04:07:41;;;;;;;;;;;11.20;99.90;;;;;;5017978;28;19925;-31
2022/09/16 04:10:07;;;;;;;;;;;11.20;99.90;;;;;;5017181;28;19917;-31
2022/09/16 04:12:32;;;;;;;;;;;11.20;99.90;;;;;;4997429;28;19997;-28
2022/09/16 04:14:58;;;;;;;;;;;11.20;99.90;;;;;;5033790;28;19921;-28
2022/09/16 04:17:24;;;;;;;;;;;11.20;99.90;;;;;;5020028;28;19920;-28
2022/09/16 04:19:50;;;;;;;;;;;11.10;99.90;;;;;;5020120;28;20390;-28
2022/09/16 04:22:15;;;;;;;;;;;11.20;99.90;;;;;;5036733;28;20358;-28
2022/09/16 04:24:41;;;;;;;;;;;11.20;99.90;;;;;;5036062;28;19917;-28
2022/09/16 04:27:07;;;;;;;;;;;11.20;99.90;;;;;;5036678;28;19916;-28
2022/09/16 04:29:32;;;;;;;;;;;11.20;99.90;;;;;;5054517;28;19916;-28
2022/09/16 04:32:01;;;;;;;;;;;11.20;99.90;;;;;;5036524;28;20262;-28
2022/09/16 04:34:27;;;;;;;;;;;11.20;99.90;;;;;;5036668;28;19920;-28
2022/09/16 04:36:52;;;;;;;;;;;11.20;99.90;;;;;;5036147;28;19939;-28
2022/09/16 04:39:18;;;;;;;;;;;11.10;99.90;;;;;;5036427;28;19967;-28
2022/09/16 04:41:44;;;;;;;;;;;11.10;99.90;;;;;;5036123;28;19916;-28
2022/09/16 04:44:09;;;;;;;;;;;11.00;99.90;;;;;;5036378;28;19967;-28
2022/09/16 04:46:35;;;;;;;;;;;11.00;99.90;;;;;;5036489;28;19917;-28
2022/09/16 04:49:00;;;;;;;;;;;10.90;99.90;;;;;;5036226;28;20326;-28
2022/09/16 04:51:27;;;;;;;;;;;10.90;99.90;;;;;;5036313;28;20267;-28
2022/09/16 04:53:53;;;;;;;;;;;10.90;99.90;;;;;;5036258;28;20401;-28
2022/09/16 04:56:20;;;;;;;;;;;10.90;99.90;;;;;;5036172;28;19917;-28
2022/09/16 04:58:47;;;;;;;;;;;10.90;99.90;;;;;;5036244;28;19970;-28
2022/09/16 05:01:14;;;;;;;;;;;10.90;99.90;;;;;;5036039;28;20382;-28
2022/09/16 05:03:44;;;;;;;;;;;10.80;99.90;;;;;;5036271;28;20289;-27
2022/09/16 05:06:11;;;;;;;;;;;10.80;99.90;;;;;;5035479;28;19917;-27
2022/09/16 05:08:37;;;;;;;;;;;10.80;99.90;;;;;;5018924;28;20019;-27
2022/09/16 05:11:06;;;;;;;;;;;10.80;99.90;;;;;;5035648;28;19967;-27
2022/09/16 05:13:32;;;;;;;;;;;10.80;99.90;;;;;;5035722;28;19921;-27
2022/09/16 05:16:06;;;;;;;;;;;10.70;99.90;;;;;;5035643;28;20259;-29
2022/09/16 05:18:32;;;;;;;;;;;10.70;99.90;;;;;;5035821;28;20034;-27
2022/09/16 05:20:58;;;;;;;;;;;10.70;99.90;;;;;;5035466;28;19921;-27
2022/09/16 05:23:24;;;;;;;;;;;10.70;99.90;;;;;;5035308;28;19917;-27
2022/09/16 05:25:50;;;;;;;;;;;10.70;99.90;;;;;;5017852;28;19924;-27
2022/09/16 05:28:15;;;;;;;;;;;10.70;99.90;;;;;;5033790;28;19917;-27
2022/09/16 05:30:41;;;;;;;;;;;10.60;99.90;;;;;;5034375;28;20385;-27
2022/09/16 05:33:06;;;;;;;;;;;10.70;99.90;;;;;;5034466;28;19922;-27
2022/09/16 05:35:32;;;;;;;;;;;10.60;99.90;;;;;;5034403;28;20259;-27
2022/09/16 05:37:58;;;;;;;;;;;10.60;99.90;;;;;;5017276;28;19916;-27
2022/09/16 05:40:26;;;;;;;;;;;10.60;99.90;;;;;;5035152;28;19917;-27
2022/09/16 05:42:51;;;;;;;;;;;10.50;99.90;;;;;;5035242;28;19960;-27
2022/09/16 05:45:17;;;;;;;;;;;10.50;99.90;;;;;;5053342;28;20404;-27
2022/09/16 05:47:46;;;;;;;;;;;10.50;99.90;;;;;;5035094;28;20298;-27
2022/09/16 05:50:12;;;;;;;;;;;10.50;99.90;;;;;;5034978;28;19916;-27
2022/09/16 05:52:37;;;;;;;;;;;10.50;99.90;;;;;;5035179;28;20008;-27
2022/09/16 05:55:03;;;;;;;;;;;10.40;99.90;;;;;;5018775;28;19927;-27
2022/09/16 05:57:29;;;;;;;;;;;10.40;99.90;;;;;;5034773;28;19916;-27
2022/09/16 05:59:54;;;;;;;;;;;10.40;99.90;;;;;;5034813;28;19928;-27
2022/09/16 06:02:20;;;;;;;;;;;10.50;99.90;;;;;;5034931;28;20072;-27
2022/09/16 06:04:46;;;;;;;;;;;10.40;99.90;;;;;;5034798;28;19999;-27
2022/09/16 06:07:16;;;;;;;;;;;10.50;99.90;;;;;;5034606;28;19940;-27
2022/09/16 06:09:42;;;;;;;;;;;10.50;99.90;;;;;;5034918;28;19924;-27
2022/09/16 06:12:08;;;;;;;;;;;10.60;99.90;;;;;;5034348;28;20362;-27
2022/09/16 06:14:34;;;;;;;;;;;10.60;99.90;;;;;;5034834;28;20294;-27
2022/09/16 06:17:00;;;;;;;;;;;10.60;99.90;;;;;;5034926;28;19917;-27
2022/09/16 06:19:26;;;;;;;;;;;10.70;99.90;;;;;;5034477;28;19923;-27
2022/09/16 06:21:51;;;;;;;;;;;10.80;99.90;;;;;;5034466;28;19920;-27
2022/09/16 06:24:18;;;;;;;;;;;10.90;99.90;;;;;;5034585;28;19959;-27
2022/09/16 06:26:44;;;;;;;;;;;11.00;99.90;;;;;;5034413;28;19924;-27
2022/09/16 06:29:10;;;;;;;;;;;11.00;99.90;;;;;;5034043;28;19917;-27
2022/09/16 06:31:36;;;;;;;;;;;11.10;99.90;;;;;;5034247;28;20007;-27
2022/09/16 06:34:02;;;;;;;;;;;11.10;99.90;;;;;;5034522;28;19956;-27
2022/09/16 06:36:29;;;;;;;;;;;11.30;99.90;;;;;;5034400;28;20019;-27
2022/09/16 06:38:55;;;;;;;;;;;11.30;99.90;;;;;;5034316;28;19916;-28
2022/09/16 06:41:21;;;;;;;;;;;11.50;99.90;;;;;;5017614;28;19974;-27
2022/09/16 06:43:47;;;;;;;;;;;11.60;99.90;;;;;;5034281;28;19974;-28
2022/09/16 06:46:15;;;;;;;;;;;11.70;99.90;;;;;;5033411;28;19917;-28
2022/09/16 06:48:41;;;;;;;;;;;11.70;99.90;;;;;;5036403;28;20420;-27
2022/09/16 06:51:15;;;;;;;;;;;11.80;99.90;;;;;;5038406;28;20348;-27
2022/09/16 06:53:41;;;;;;;;;;;11.80;99.90;;;;;;5038227;28;19920;-27
2022/09/16 06:56:11;;;;;;;;;;;11.70;99.90;;;;;;5038040;28;19916;-27
2022/09/16 06:58:38;;;;;;;;;;;11.70;99.90;;;;;;5038216;28;19967;-27
2022/09/16 07:01:08;;;;;;;;;;;11.70;99.90;;;;;;5038078;28;19970;-27
2022/09/16 07:03:36;;;;;;;;;;;11.70;99.90;;;;;;5038139;28;20011;-27
2022/09/16 07:06:02;;;;;;;;;;;11.70;99.90;;;;;;5038270;28;19916;-27
2022/09/16 07:08:29;;;;;;;;;;;11.70;99.90;;;;;;5038407;28;20388;-27
2022/09/16 07:10:58;;;;;;;;;;;11.70;99.90;;;;;;5037994;28;19920;-27
2022/09/16 07:13:24;;;;;;;;;;;11.70;99.90;;;;;;5037794;28;19921;-27
2022/09/16 07:15:49;;;;;;;;;;;11.80;99.90;;;;;;5038228;28;19939;-27
2022/09/16 07:18:15;;;;;;;;;;;11.80;99.90;;;;;;5037830;28;19916;-27
2022/09/16 07:20:41;;;;;;;;;;;11.90;99.90;;;;;;5038154;28;19968;-27
2022/09/16 07:23:06;;;;;;;;;;;12.10;99.90;;;;;;5037269;28;19923;-27
2022/09/16 07:25:32;;;;;;;;;;;12.30;99.90;;;;;;5037320;28;19923;-27
2022/09/16 07:27:57;;;;;;;;;;;12.40;99.90;;;;;;5036803;28;19917;-27
2022/09/16 07:30:23;;;;;;;;;;;12.40;99.90;;;;;;5036790;28;19987;-29
2022/09/16 07:32:49;;;;;;;;;;;12.50;99.90;;;;;;5036988;28;19916;-28
2022/09/16 07:35:14;;;;;;;;;;;12.60;99.90;;;;;;5036677;28;20019;-27
2022/09/16 07:37:40;;;;;;;;;;;12.60;99.90;;;;;;5037222;28;19923;-28
2022/09/16 07:40:06;;;;;;;;;;;12.80;99.90;;;;;;5037608;28;19917;-27
2022/09/16 07:42:32;;;;;;;;;;;12.80;99.90;;;;;;5037448;28;19920;-28
2022/09/16 07:44:57;;;;;;;;;;;12.90;99.90;;;;;;5037527;28;19916;-28
2022/09/16 07:47:23;;;;;;;;;;;13.10;99.90;;;;;;5037509;28;19923;-28
2022/09/16 07:49:54;;;;;;;;;;;13.30;99.90;;;;;;5037265;28;19970;-28
2022/09/16 07:52:22;;;;;;;;;;;13.40;99.90;;;;;;5037078;28;19924;-28
2022/09/16 07:54:48;;;;;;;;;;;13.70;99.90;;;;;;5037337;28;19920;-27
2022/09/16 07:57:13;;;;;;;;;;;13.90;99.90;;;;;;5037394;28;19916;-28
2022/09/16 07:59:39;;;;;;;;;;;14.10;99.90;;;;;;5036452;28;20606;-27
2022/09/16 08:02:05;;;;;;;;;;;14.30;99.90;;;;;;5020452;28;19927;-28
2022/09/16 08:04:30;;;;;;;;;;;14.50;99.90;;;;;;5037119;28;20309;-27
2022/09/16 08:06:56;;;;;;;;;;;14.60;99.90;;;;;;5037111;28;20362;-28
2022/09/16 08:09:22;;;;;;;;;;;14.80;99.90;;;;;;5036956;28;19916;-28
2022/09/16 08:11:47;;;;;;;;;;;15.00;99.90;;;;;;5037027;28;20309;-28
2022/09/16 08:14:13;;;;;;;;;;;15.30;99.90;;;;;;5037167;28;20329;-28
2022/09/16 08:16:38;;;;;;;;;;;15.40;99.90;;;;;;5036727;28;19967;-27
2022/09/16 08:19:04;;;;;;;;;;;15.60;99.90;;;;;;5036937;28;19920;-28
2022/09/16 08:21:30;;;;;;;;;;;15.80;99.90;;;;;;5036928;28;20318;-28
2022/09/16 08:23:56;;;;;;;;;;;16.10;99.90;;;;;;5036805;28;19924;-28
2022/09/16 08:26:22;;;;;;;;;;;16.50;99.90;;;;;;5037164;28;19982;-28
2022/09/16 08:28:48;;;;;;;;;;;16.90;99.90;;;;;;5037156;28;20362;-28
2022/09/16 08:31:14;;;;;;;;;;;17.10;99.90;;;;;;5036742;28;19917;-28
2022/09/16 08:33:40;;;;;;;;;;;17.60;99.90;;;;;;5036733;28;19920;-28
2022/09/16 08:36:09;;;;;;;;;;;17.70;99.90;;;;;;5020464;28;19939;-29
2022/09/16 08:38:35;;;;;;;;;;;17.90;99.90;;;;;;5036597;28;19927;-29
2022/09/16 08:41:04;;;;;;;;;;;18.40;99.90;;;;;;5020439;28;19916;-29
2022/09/16 08:43:35;;;;;;;;;;;18.60;99.90;;;;;;5036880;28;19924;-29
2022/09/16 08:46:08;;;;;;;;;;;18.30;99.90;;;;;;5037456;28;19923;-29
2022/09/16 08:48:57;;;;;;;;;;;18.40;99.90;;;;;;5054793;28;20050;-29
2022/09/16 08:51:23;;;;;;;;;;;18.50;99.90;;;;;;5036851;28;19967;-29
2022/09/16 08:53:49;;;;;;;;;;;18.50;99.90;;;;;;5036702;28;19927;-29
2022/09/16 08:56:16;;;;;;;;;;;18.50;99.90;;;;;;5055015;28;19921;-29
2022/09/16 08:58:47;;;;;;;;;;;18.60;99.90;;;;;;5020203;28;19924;-29
2022/09/16 09:01:15;;;;;;;;;;;18.20;99.80;;;;;;5020012;28;19917;-28
2022/09/16 09:03:43;;;;;;;;;;;17.80;99.90;;;;;;5036973;28;19916;-29
2022/09/16 09:06:21;;;;;;;;;;;17.60;99.90;;;;;;5027528;28;19924;-30
2022/09/16 09:08:49;;;;;;;;;;;17.40;99.90;;;;;;5006447;28;19927;-30
2022/09/16 09:11:18;;;;;;;;;;;17.20;99.90;;;;;;5033877;28;19924;-30
2022/09/16 09:13:47;;;;;;;;;;;16.80;99.90;;;;;;5029876;28;19929;-29
2022/09/16 09:16:19;;;;;;;;;;;16.50;99.90;;;;;;5030713;28;19918;-29
2022/09/16 09:19:03;;;;;;;;;;;16.30;99.90;;;;;;4997685;28;20410;-28
2022/09/16 09:21:41;;;;;;;;;;;16.40;99.90;;;;;;5013400;28;19918;-28
2022/09/16 09:24:07;;;;;;;;;;;17.10;99.90;;;;;;5030085;28;20432;-29
2022/09/16 09:26:55;;;;;;;;;;;17.30;99.90;;;;;;5013308;28;19923;-29
2022/09/16 09:29:56;;;;;;;;;;;17.40;99.90;;;;;;5029910;28;19921;-29
2022/09/16 09:32:25;;;;;;;;;;;17.60;99.90;;;;;;4953753;29;19976;-29
2022/09/16 09:34:53;;;;;;;;;;;18.40;99.90;;;;;;4985514;28;19928;-29
2022/09/16 09:37:22;;;;;;;;;;;18.80;99.30;;;;;;5030003;28;19976;-30
2022/09/16 09:40:15;;;;;;;;;;;19.10;99.90;;;;;;5029392;28;20200;-29
2022/09/16 09:43:13;;;;;;;;;;;19.60;98.70;;;;;;5013632;28;20367;-29
2022/09/16 09:45:42;;;;;;;;;;;19.90;90.30;;;;;;4974807;28;20387;-29
2022/09/16 09:48:09;;;;;;;;;;;20.30;83.60;;;;;;5027859;28;19925;-31
2022/09/16 09:50:44;;;;;;;;;;;20.50;79.20;;;;;;5021699;28;19921;-31
2022/09/16 09:53:10;;;;;;;;;;;20.40;64.60;;;;;;5021125;28;19921;-31
2022/09/16 09:55:36;;;;;;;;;;;20.20;71.00;;;;;;5031936;28;19936;-31
2022/09/16 09:58:05;;;;;;;;;;;20.10;76.90;;;;;;5015815;28;19923;-31
2022/09/16 10:00:30;;;;;;;;;;;19.70;79.90;;;;;;5032241;28;19917;-30
2022/09/16 10:03:25;;;;;;;;;;;19.70;72.10;;;;;;5024231;28;19917;-30
2022/09/16 10:05:51;;;;;;;;;;;19.80;68.80;;;;;;5002465;28;19917;-30
2022/09/16 10:08:20;;;;;;;;;;;20.00;78.70;;;;;;5017743;28;19971;-31
2022/09/16 10:10:48;;;;;;;;;;;20.30;65.90;;;;;;5018951;28;20359;-30
2022/09/16 10:13:16;;;;;;;;;;;20.40;70.70;;;;;;5039231;28;20370;-31
2022/09/16 10:15:42;;;;;;;;;;;20.20;57.90;;;;;;5014332;28;19917;-31
2022/09/16 10:18:10;;;;;;;;;;;20.40;59.50;;;;;;4992366;28;19924;-31
2022/09/16 10:20:38;;;;;;;;;;;20.60;57.20;;;;;;5011594;28;19924;-30
2022/09/16 10:23:09;;;;;;;;;;;20.70;54.90;;;;;;5015949;28;19975;-31
2022/09/16 10:25:34;;;;;;;;;;;21.00;58.90;;;;;;5031924;28;19928;-31
2022/09/16 10:28:05;;;;;;;;;;;21.20;56.60;;;;;;5020006;28;19921;-31
2022/09/16 10:30:37;;;;;;;;;;;21.60;55.90;;;;;;5016586;28;19917;-31
2022/09/16 10:33:04;;;;;;;;;;;21.80;51.60;;;;;;5020344;28;19955;-31
2022/09/16 10:35:31;;;;;;;;;;;22.00;51.00;;;;;;5019994;28;19978;-31
2022/09/16 10:38:03;;;;;;;;;;;22.00;51.20;;;;;;5016016;28;19963;-30
2022/09/16 10:40:29;;;;;;;;;;;21.10;50.00;;;;;;5032298;28;19917;-30
2022/09/16 10:42:58;;;;;;;;;;;20.30;54.60;;;;;;5004309;28;19921;-30
2022/09/16 10:45:26;;;;;;;;;;;19.50;65.60;;;;;;5026985;28;20118;-30
2022/09/16 10:47:53;;;;;;;;;;;18.80;83.50;;;;;;5026338;28;19960;-30
2022/09/16 10:50:19;;;;;;;;;;;18.30;91.60;;;;;;5013836;28;19960;-30
2022/09/16 10:52:46;;;;;;;;;;;18.20;97.60;;;;;;5014494;28;20382;-30
2022/09/16 10:55:20;;;;;;;;;;;19.00;94.80;;;;;;5021065;28;20420;-30
2022/09/16 10:57:46;;;;;;;;;;;19.50;89.30;;;;;;5009022;28;19917;-30
2022/09/16 11:00:22;;;;;;;;;;;20.20;78.20;;;;;;5016363;28;19925;-30
2022/09/16 11:02:58;;;;;;;;;;;20.90;71.50;;;;;;5029067;28;19924;-31
2022/09/16 11:05:26;;;;;;;;;;;21.40;65.20;;;;;;5014607;28;19917;-30
2022/09/16 11:08:05;;;;;;;;;;;21.90;59.50;;;;;;5026553;28;19929;-30
2022/09/16 11:10:47;;;;;;;;;;;22.30;58.00;;;;;;5032383;28;19940;-30
2022/09/16 11:13:19;;;;;;;;;;;22.50;52.10;;;;;;5011916;28;19933;-31
2022/09/16 11:16:03;;;;;;;;;;;22.90;52.70;;;;;;5009038;28;19921;-31
2022/09/16 11:18:38;;;;;;;;;;;22.60;47.80;;;;;;5036291;28;19921;-30
2022/09/16 11:21:13;;;;;;;;;;;21.70;55.80;;;;;;5012294;28;19960;-31
2022/09/16 11:23:38;;;;;;;;;;;20.60;51.60;;;;;;5015024;28;20330;-31
2022/09/16 11:26:19;;;;;;;;;;;19.80;56.70;;;;;;5040505;28;19917;-30
2022/09/16 11:29:04;;;;;;;;;;;19.20;62.60;;;;;;5028341;28;20271;-30
2022/09/16 11:31:32;;;;;;;;;;;19.10;70.20;;;;;;5030680;28;19971;-31
2022/09/16 11:34:04;;;;;;;;;;;19.70;69.00;;;;;;5025442;28;20016;-31
2022/09/16 11:37:02;;;;;;;;;;;20.40;64.10;;;;;;5029914;28;19923;-30
2022/09/16 11:39:37;;;;;;;;;;;21.70;68.50;;;;;;4989681;28;19925;-31
2022/09/16 11:42:14;;;;;;;;;;;22.40;56.30;;;;;;5040991;28;19917;-31
2022/09/16 11:44:59;;;;;;;;;;;22.60;51.80;;;;;;5030566;28;19947;-31
2022/09/16 11:47:25;;;;;;;;;;;22.70;49.80;;;;;;5029018;28;20058;-31
2022/09/16 11:49:53;;;;;;;;;;;22.50;48.30;;;;;;5045197;28;19948;-31
2022/09/16 11:52:19;;;;;;;;;;;22.40;51.40;;;;;;5024860;28;20275;-31
2022/09/16 11:54:57;;;;;;;;;;;22.40;51.00;;;;;;5007940;28;19932;-31
2022/09/16 11:57:31;;;;;;;;;;;21.50;49.10;;;;;;5026863;28;20299;-31
2022/09/16 11:59:59;;;;;;;;;;;20.80;51.80;;;;;;5021641;28;19944;-31
2022/09/16 12:02:39;;;;;;;;;;;20.80;55.10;;;;;;5040704;28;20294;-31
2022/09/16 12:05:11;;;;;;;;;;;20.80;54.20;;;;;;5010875;28;19972;-31
2022/09/16 12:07:49;;;;;;;;;;;20.40;56.50;;;;;;5019629;28;19917;-31
2022/09/16 12:10:18;;;;;;;;;;;20.20;61.40;;;;;;5037758;28;19920;-31
2022/09/16 12:13:03;;;;;;;;;;;19.70;80.90;;;;;;5027244;28;19968;-31
2022/09/16 12:15:47;;;;;;;;;;;19.10;95.40;;;;;;5046253;28;19970;-31
2022/09/16 12:18:36;;;;;;;;;;;18.70;99.90;;;;;;5010356;28;19950;-31
2022/09/16 12:21:21;;;;;;;;;;;19.20;99.90;;;;;;5006862;28;19971;-32
2022/09/16 12:24:06;;;;;;;;;;;19.40;99.30;;;;;;5027539;28;19939;-32
2022/09/16 12:26:32;;;;;;;;;;;19.90;95.00;;;;;;5011936;28;19917;-32
2022/09/16 12:29:08;;;;;;;;;;;20.60;62.00;;;;;;5005589;28;19918;-32
2022/09/16 12:31:41;;;;;;;;;;;21.10;57.20;;;;;;5017617;28;20008;-32
2022/09/16 12:34:07;;;;;;;;;;;21.50;55.40;;;;;;5018980;28;20374;-32
2022/09/16 12:36:35;;;;;;;;;;;21.80;56.40;;;;;;5022929;28;19967;-32
2022/09/16 12:39:01;;;;;;;;;;;20.40;63.10;;;;;;5032513;28;19921;-32
2022/09/16 12:41:32;;;;;;;;;;;19.40;74.20;;;;;;5016076;28;19925;-32
2022/09/16 12:44:25;;;;;;;;;;;18.40;85.00;;;;;;5038106;28;20365;-32
2022/09/16 12:46:54;;;;;;;;;;;17.40;84.80;;;;;;5018672;28;19917;-31
2022/09/16 12:49:42;;;;;;;;;;;16.70;94.40;;;;;;5001890;28;19918;-31
2022/09/16 12:52:34;;;;;;;;;;;16.40;96.60;;;;;;5015291;28;19967;-31
2022/09/16 12:55:03;;;;;;;;;;;16.80;99.90;;;;;;4984630;28;19921;-32
2022/09/16 12:57:53;;;;;;;;;;;17.80;96.10;;;;;;5024291;28;19916;-32
2022/09/16 13:00:26;;;;;;;;;;;18.80;94.40;;;;;;5012221;28;19971;-32
2022/09/16 13:02:59;;;;;;;;;;;19.90;88.90;;;;;;5031610;28;19923;-32
2022/09/16 13:05:29;;;;;;;;;;;20.60;77.70;;;;;;5002406;28;20353;-31
2022/09/16 13:07:59;;;;;;;;;;;21.30;73.80;;;;;;5023366;28;19967;-30
2022/09/16 13:10:24;;;;;;;;;;;21.80;66.00;;;;;;5013451;28;20274;-30
2022/09/16 13:12:54;;;;;;;;;;;22.10;62.00;;;;;;5024056;28;19923;-30
2022/09/16 13:15:25;;;;;;;;;;;22.20;60.20;;;;;;5012924;28;19952;-31
2022/09/16 13:17:52;;;;;;;;;;;21.20;59.60;;;;;;5022035;28;19965;-30
2022/09/16 13:20:32;;;;;;;;;;;20.20;66.30;;;;;;5017586;28;19917;-30
2022/09/16 13:22:58;;;;;;;;;;;19.60;81.60;;;;;;5020987;28;20011;-31
2022/09/16 13:25:32;;;;;;;;;;;20.20;69.30;;;;;;5016406;28;20348;-29
2022/09/16 13:28:00;;;;;;;;;;;20.80;59.50;;;;;;5020869;28;19923;-30
2022/09/16 13:30:30;;;;;;;;;;;21.60;61.00;;;;;;5023463;28;19916;-30
2022/09/16 13:32:58;;;;;;;;;;;22.40;56.60;;;;;;5019636;28;19917;-30
2022/09/16 13:35:23;;;;;;;;;;;22.80;53.40;;;;;;5028360;28;20031;-30
2022/09/16 13:37:56;;;;;;;;;;;23.40;53.80;;;;;;5020546;28;19933;-30
2022/09/16 13:40:26;;;;;;;;;;;23.50;50.00;;;;;;5023190;28;19917;-31
2022/09/16 13:43:07;;;;;;;;;;;23.90;50.50;;;;;;5016199;28;19921;-29
2022/09/16 13:45:43;;;;;;;;;;;23.80;50.20;;;;;;5032987;28;20309;-29
2022/09/16 13:48:12;;;;;;;;;;;23.40;49.80;;;;;;5034215;28;19917;-29
2022/09/16 13:50:42;;;;;;;;;;;22.50;51.50;;;;;;5000311;28;19970;-29
2022/09/16 13:53:28;;;;;;;;;;;20.80;52.20;;;;;;5016857;28;19978;-29
2022/09/16 13:55:57;;;;;;;;;;;20.40;55.70;;;;;;5034250;28;19924;-29
2022/09/16 13:58:29;;;;;;;;;;;20.10;57.80;;;;;;5016041;28;20282;-29
2022/09/16 14:01:09;;;;;;;;;;;20.30;60.50;;;;;;5016305;28;19964;-28
2022/09/16 14:03:47;;;;;;;;;;;20.50;58.20;;;;;;5016155;28;19921;-28
2022/09/16 14:06:19;;;;;;;;;;;20.60;59.60;;;;;;5031995;28;19925;-28
2022/09/16 14:09:00;;;;;;;;;;;20.70;58.50;;;;;;5032579;28;19947;-29
2022/09/16 14:11:32;;;;;;;;;;;20.80;60.20;;;;;;5032286;28;19924;-29
2022/09/16 14:14:02;;;;;;;;;;;20.90;60.10;;;;;;5033506;28;19986;-29
2022/09/16 14:16:29;;;;;;;;;;;21.40;62.60;;;;;;5015358;28;20333;-28
2022/09/16 14:19:07;;;;;;;;;;;21.30;60.20;;;;;;5015166;28;19928;-29
2022/09/16 14:21:37;;;;;;;;;;;20.70;62.40;;;;;;5031973;28;19967;-30
2022/09/16 14:24:18;;;;;;;;;;;19.40;83.70;;;;;;5015761;28;20345;-28
2022/09/16 14:26:54;;;;;;;;;;;18.10;91.90;;;;;;5015803;28;19917;-28
2022/09/16 14:29:21;;;;;;;;;;;17.40;99.90;;;;;;5016259;28;19936;-28
2022/09/16 14:31:47;;;;;;;;;;;16.90;99.90;;;;;;5016148;28;19967;-28